sensor_id;sensor_type;location;lat;lon;timestamp;P1;durP1;ratioP1;P2;durP2;ratioP2
27796;SDS011;15177;50.844;4.412;2023-06-22T00:00:57;7.65;;;4.18;;
27796;SDS011;15177;50.844;4.412;2023-06-22T00:03:24;4.75;;;3.38;;
27796;SDS011;15177;50.844;4.412;2023-06-22T00:05:50;10.73;;;4.35;;
27796;SDS011;15177;50.844;4.412;2023-06-22T00:08:17;7.35;;;4.10;;
27796;SDS011;15177;50.844;4.412;2023-06-22T00:10:44;6.75;;;4.38;;
27796;SDS011;15177;50.844;4.412;2023-06-22T00:13:10;9.75;;;4.25;;
27796;SDS011;15177;50.844;4.412;2023-06-22T00:15:37;6.57;;;4.38;;
27796;SDS011;15177;50.844;4.412;2023-06-22T00:18:04;11.10;;;4.55;;
27796;SDS011;15177;50.844;4.412;2023-06-22T00:20:31;7.57;;;3.78;;
27796;SDS011;15177;50.844;4.412;2023-06-22T00:22:58;8.35;;;4.93;;
27796;SDS011;15177;50.844;4.412;2023-06-22T00:25:25;9.40;;;4.90;;
27796;SDS011;15177;50.844;4.412;2023-06-22T00:27:51;6.70;;;4.50;;
27796;SDS011;15177;50.844;4.412;2023-06-22T00:30:17;8.68;;;5.05;;
27796;SDS011;15177;50.844;4.412;2023-06-22T00:32:43;10.32;;;4.68;;
27796;SDS011;15177;50.844;4.412;2023-06-22T00:35:11;6.72;;;4.53;;
27796;SDS011;15177;50.844;4.412;2023-06-22T00:37:37;7.22;;;4.22;;
27796;SDS011;15177;50.844;4.412;2023-06-22T00:40:05;11.13;;;3.97;;
27796;SDS011;15177;50.844;4.412;2023-06-22T00:42:37;7.47;;;4.55;;
27796;SDS011;15177;50.844;4.412;2023-06-22T00:45:05;7.95;;;5.00;;
27796;SDS011;15177;50.844;4.412;2023-06-22T00:47:31;9.15;;;5.13;;
27796;SDS011;15177;50.844;4.412;2023-06-22T00:49:59;7.50;;;5.05;;
27796;SDS011;15177;50.844;4.412;2023-06-22T00:52:25;9.45;;;4.50;;
27796;SDS011;15177;50.844;4.412;2023-06-22T00:54:54;7.55;;;4.88;;
27796;SDS011;15177;50.844;4.412;2023-06-22T00:57:22;8.10;;;5.40;;
27796;SDS011;15177;50.844;4.412;2023-06-22T00:59:50;8.85;;;5.25;;
27796;SDS011;15177;50.844;4.412;2023-06-22T01:02:16;7.82;;;4.65;;
27796;SDS011;15177;50.844;4.412;2023-06-22T01:04:42;7.50;;;5.22;;
27796;SDS011;15177;50.844;4.412;2023-06-22T01:09:42;8.00;;;5.35;;
27796;SDS011;15177;50.844;4.412;2023-06-22T01:12:22;7.82;;;4.95;;
27796;SDS011;15177;50.844;4.412;2023-06-22T01:14:55;7.70;;;5.28;;
27796;SDS011;15177;50.844;4.412;2023-06-22T01:17:29;10.65;;;5.20;;
27796;SDS011;15177;50.844;4.412;2023-06-22T01:19:57;11.43;;;5.75;;
27796;SDS011;15177;50.844;4.412;2023-06-22T01:22:25;10.73;;;5.50;;
27796;SDS011;15177;50.844;4.412;2023-06-22T01:25:07;10.13;;;5.47;;
27796;SDS011;15177;50.844;4.412;2023-06-22T01:27:46;9.85;;;5.72;;
27796;SDS011;15177;50.844;4.412;2023-06-22T01:30:26;7.60;;;4.93;;
27796;SDS011;15177;50.844;4.412;2023-06-22T01:32:54;10.50;;;5.30;;
27796;SDS011;15177;50.844;4.412;2023-06-22T01:35:24;9.10;;;5.85;;
27796;SDS011;15177;50.844;4.412;2023-06-22T01:37:51;7.55;;;5.45;;
27796;SDS011;15177;50.844;4.412;2023-06-22T01:40:21;8.90;;;5.45;;
27796;SDS011;15177;50.844;4.412;2023-06-22T01:42:48;9.77;;;5.65;;
27796;SDS011;15177;50.844;4.412;2023-06-22T01:45:15;9.52;;;5.40;;
27796;SDS011;15177;50.844;4.412;2023-06-22T01:47:41;11.38;;;6.97;;
27796;SDS011;15177;50.844;4.412;2023-06-22T01:50:07;7.60;;;5.43;;
27796;SDS011;15177;50.844;4.412;2023-06-22T01:52:34;11.45;;;5.95;;
27796;SDS011;15177;50.844;4.412;2023-06-22T01:55:00;13.10;;;5.68;;
27796;SDS011;15177;50.844;4.412;2023-06-22T01:57:26;7.55;;;5.75;;
27796;SDS011;15177;50.844;4.412;2023-06-22T02:02:35;11.45;;;6.55;;
27796;SDS011;15177;50.844;4.412;2023-06-22T02:05:06;10.45;;;6.05;;
27796;SDS011;15177;50.844;4.412;2023-06-22T02:07:39;8.95;;;6.10;;
27796;SDS011;15177;50.844;4.412;2023-06-22T02:10:10;7.68;;;5.63;;
27796;SDS011;15177;50.844;4.412;2023-06-22T02:12:39;8.43;;;5.93;;
27796;SDS011;15177;50.844;4.412;2023-06-22T02:15:07;9.85;;;5.85;;
27796;SDS011;15177;50.844;4.412;2023-06-22T02:17:33;10.38;;;5.70;;
27796;SDS011;15177;50.844;4.412;2023-06-22T02:20:00;10.25;;;6.28;;
27796;SDS011;15177;50.844;4.412;2023-06-22T02:22:34;10.10;;;6.40;;
27796;SDS011;15177;50.844;4.412;2023-06-22T02:25:00;11.82;;;6.40;;
27796;SDS011;15177;50.844;4.412;2023-06-22T02:27:26;10.25;;;6.38;;
27796;SDS011;15177;50.844;4.412;2023-06-22T02:29:51;9.32;;;6.20;;
27796;SDS011;15177;50.844;4.412;2023-06-22T02:32:17;10.40;;;6.05;;
27796;SDS011;15177;50.844;4.412;2023-06-22T02:34:43;10.63;;;7.05;;
27796;SDS011;15177;50.844;4.412;2023-06-22T02:37:13;10.60;;;7.25;;
27796;SDS011;15177;50.844;4.412;2023-06-22T02:39:42;11.48;;;7.00;;
27796;SDS011;15177;50.844;4.412;2023-06-22T02:42:08;10.73;;;6.45;;
27796;SDS011;15177;50.844;4.412;2023-06-22T02:44:35;12.27;;;6.72;;
27796;SDS011;15177;50.844;4.412;2023-06-22T02:47:01;10.43;;;6.60;;
27796;SDS011;15177;50.844;4.412;2023-06-22T02:49:28;11.38;;;7.20;;
27796;SDS011;15177;50.844;4.412;2023-06-22T02:51:57;12.35;;;7.25;;
27796;SDS011;15177;50.844;4.412;2023-06-22T02:54:22;10.00;;;6.57;;
27796;SDS011;15177;50.844;4.412;2023-06-22T02:56:49;13.10;;;7.47;;
27796;SDS011;15177;50.844;4.412;2023-06-22T02:59:15;10.80;;;7.25;;
27796;SDS011;15177;50.844;4.412;2023-06-22T03:01:41;10.38;;;6.97;;
27796;SDS011;15177;50.844;4.412;2023-06-22T03:04:07;11.48;;;7.13;;
27796;SDS011;15177;50.844;4.412;2023-06-22T03:06:33;11.70;;;7.43;;
27796;SDS011;15177;50.844;4.412;2023-06-22T03:09:00;11.38;;;7.15;;
27796;SDS011;15177;50.844;4.412;2023-06-22T03:11:29;8.35;;;6.38;;
27796;SDS011;15177;50.844;4.412;2023-06-22T03:13:58;11.15;;;7.28;;
27796;SDS011;15177;50.844;4.412;2023-06-22T03:16:24;12.00;;;7.20;;
27796;SDS011;15177;50.844;4.412;2023-06-22T03:18:50;11.45;;;6.65;;
27796;SDS011;15177;50.844;4.412;2023-06-22T03:21:21;12.50;;;7.78;;
27796;SDS011;15177;50.844;4.412;2023-06-22T03:23:48;11.25;;;7.72;;
27796;SDS011;15177;50.844;4.412;2023-06-22T03:26:18;14.05;;;7.55;;
27796;SDS011;15177;50.844;4.412;2023-06-22T03:28:45;10.00;;;7.07;;
27796;SDS011;15177;50.844;4.412;2023-06-22T03:31:11;13.82;;;7.20;;
27796;SDS011;15177;50.844;4.412;2023-06-22T03:33:37;9.73;;;6.70;;
27796;SDS011;15177;50.844;4.412;2023-06-22T03:36:03;13.60;;;6.93;;
27796;SDS011;15177;50.844;4.412;2023-06-22T03:38:30;12.13;;;7.28;;
27796;SDS011;15177;50.844;4.412;2023-06-22T03:40:56;8.63;;;6.97;;
27796;SDS011;15177;50.844;4.412;2023-06-22T03:43:23;11.32;;;6.82;;
27796;SDS011;15177;50.844;4.412;2023-06-22T03:45:51;16.70;;;7.43;;
27796;SDS011;15177;50.844;4.412;2023-06-22T03:48:17;11.57;;;7.47;;
27796;SDS011;15177;50.844;4.412;2023-06-22T03:50:42;12.23;;;6.93;;
27796;SDS011;15177;50.844;4.412;2023-06-22T03:53:11;10.02;;;7.35;;
27796;SDS011;15177;50.844;4.412;2023-06-22T03:55:40;11.82;;;7.45;;
27796;SDS011;15177;50.844;4.412;2023-06-22T03:58:13;14.50;;;7.80;;
27796;SDS011;15177;50.844;4.412;2023-06-22T04:00:38;10.48;;;6.78;;
27796;SDS011;15177;50.844;4.412;2023-06-22T04:03:07;15.02;;;7.65;;
27796;SDS011;15177;50.844;4.412;2023-06-22T04:05:32;10.57;;;7.70;;
27796;SDS011;15177;50.844;4.412;2023-06-22T04:07:58;14.93;;;8.40;;
27796;SDS011;15177;50.844;4.412;2023-06-22T04:10:24;11.57;;;7.38;;
27796;SDS011;15177;50.844;4.412;2023-06-22T04:12:49;12.23;;;7.72;;
27796;SDS011;15177;50.844;4.412;2023-06-22T04:15:15;14.70;;;7.95;;
27796;SDS011;15177;50.844;4.412;2023-06-22T04:17:40;9.88;;;7.63;;
27796;SDS011;15177;50.844;4.412;2023-06-22T04:20:07;15.07;;;8.43;;
27796;SDS011;15177;50.844;4.412;2023-06-22T04:22:33;12.48;;;8.55;;
27796;SDS011;15177;50.844;4.412;2023-06-22T04:24:58;13.88;;;8.77;;
27796;SDS011;15177;50.844;4.412;2023-06-22T04:27:24;15.10;;;9.40;;
27796;SDS011;15177;50.844;4.412;2023-06-22T04:29:50;16.48;;;9.60;;
27796;SDS011;15177;50.844;4.412;2023-06-22T04:32:16;12.45;;;8.77;;
27796;SDS011;15177;50.844;4.412;2023-06-22T04:34:42;17.05;;;9.38;;
27796;SDS011;15177;50.844;4.412;2023-06-22T04:37:11;13.60;;;9.07;;
27796;SDS011;15177;50.844;4.412;2023-06-22T04:39:40;14.07;;;8.73;;
27796;SDS011;15177;50.844;4.412;2023-06-22T04:42:07;17.40;;;10.35;;
27796;SDS011;15177;50.844;4.412;2023-06-22T04:44:32;12.35;;;8.63;;
27796;SDS011;15177;50.844;4.412;2023-06-22T04:46:58;13.73;;;9.43;;
27796;SDS011;15177;50.844;4.412;2023-06-22T04:49:29;15.13;;;8.55;;
27796;SDS011;15177;50.844;4.412;2023-06-22T04:51:59;16.52;;;8.55;;
27796;SDS011;15177;50.844;4.412;2023-06-22T04:54:25;13.27;;;8.18;;
27796;SDS011;15177;50.844;4.412;2023-06-22T04:56:51;15.45;;;9.32;;
27796;SDS011;15177;50.844;4.412;2023-06-22T04:59:23;17.17;;;9.82;;
27796;SDS011;15177;50.844;4.412;2023-06-22T05:01:54;16.33;;;9.85;;
27796;SDS011;15177;50.844;4.412;2023-06-22T05:04:21;13.70;;;9.95;;
27796;SDS011;15177;50.844;4.412;2023-06-22T05:06:49;17.63;;;11.07;;
27796;SDS011;15177;50.844;4.412;2023-06-22T05:09:18;16.48;;;10.95;;
27796;SDS011;15177;50.844;4.412;2023-06-22T05:11:46;13.43;;;10.00;;
27796;SDS011;15177;50.844;4.412;2023-06-22T05:14:12;18.17;;;11.18;;
27796;SDS011;15177;50.844;4.412;2023-06-22T05:16:38;16.30;;;10.70;;
27796;SDS011;15177;50.844;4.412;2023-06-22T05:19:06;16.60;;;10.43;;
27796;SDS011;15177;50.844;4.412;2023-06-22T05:21:35;20.52;;;11.40;;
27796;SDS011;15177;50.844;4.412;2023-06-22T05:24:03;20.85;;;12.20;;
27796;SDS011;15177;50.844;4.412;2023-06-22T05:26:31;18.13;;;12.32;;
27796;SDS011;15177;50.844;4.412;2023-06-22T05:28:59;15.75;;;11.82;;
27796;SDS011;15177;50.844;4.412;2023-06-22T05:31:26;14.25;;;11.30;;
27796;SDS011;15177;50.844;4.412;2023-06-22T05:33:53;21.23;;;12.48;;
27796;SDS011;15177;50.844;4.412;2023-06-22T05:36:21;20.70;;;12.70;;
27796;SDS011;15177;50.844;4.412;2023-06-22T05:38:52;22.83;;;14.68;;
27796;SDS011;15177;50.844;4.412;2023-06-22T05:41:18;23.73;;;15.60;;
27796;SDS011;15177;50.844;4.412;2023-06-22T05:43:44;28.83;;;16.10;;
27796;SDS011;15177;50.844;4.412;2023-06-22T05:46:09;26.80;;;17.45;;
27796;SDS011;15177;50.844;4.412;2023-06-22T05:48:35;28.20;;;16.75;;
27796;SDS011;15177;50.844;4.412;2023-06-22T05:51:01;26.42;;;16.08;;
27796;SDS011;15177;50.844;4.412;2023-06-22T05:53:26;25.58;;;16.40;;
27796;SDS011;15177;50.844;4.412;2023-06-22T05:55:54;27.52;;;16.80;;
27796;SDS011;15177;50.844;4.412;2023-06-22T05:58:20;27.65;;;17.48;;
27796;SDS011;15177;50.844;4.412;2023-06-22T06:00:45;25.75;;;17.08;;
27796;SDS011;15177;50.844;4.412;2023-06-22T06:03:13;26.17;;;17.48;;
27796;SDS011;15177;50.844;4.412;2023-06-22T06:05:42;29.10;;;17.92;;
27796;SDS011;15177;50.844;4.412;2023-06-22T06:08:08;31.65;;;17.48;;
27796;SDS011;15177;50.844;4.412;2023-06-22T06:10:36;32.45;;;19.13;;
27796;SDS011;15177;50.844;4.412;2023-06-22T06:13:03;28.42;;;18.08;;
27796;SDS011;15177;50.844;4.412;2023-06-22T06:15:30;33.90;;;17.58;;
27796;SDS011;15177;50.844;4.412;2023-06-22T06:17:58;27.40;;;15.90;;
27796;SDS011;15177;50.844;4.412;2023-06-22T06:20:25;30.08;;;17.50;;
27796;SDS011;15177;50.844;4.412;2023-06-22T06:22:53;27.05;;;16.35;;
27796;SDS011;15177;50.844;4.412;2023-06-22T06:25:18;30.15;;;16.52;;
27796;SDS011;15177;50.844;4.412;2023-06-22T06:27:49;28.85;;;16.60;;
27796;SDS011;15177;50.844;4.412;2023-06-22T06:30:17;28.00;;;17.17;;
27796;SDS011;15177;50.844;4.412;2023-06-22T06:32:45;30.27;;;17.92;;
27796;SDS011;15177;50.844;4.412;2023-06-22T06:35:12;27.52;;;17.58;;
27796;SDS011;15177;50.844;4.412;2023-06-22T06:37:39;37.58;;;17.17;;
27796;SDS011;15177;50.844;4.412;2023-06-22T06:40:08;27.08;;;16.52;;
27796;SDS011;15177;50.844;4.412;2023-06-22T06:42:46;26.70;;;16.95;;
27796;SDS011;15177;50.844;4.412;2023-06-22T06:45:18;30.48;;;17.02;;
27796;SDS011;15177;50.844;4.412;2023-06-22T06:47:44;23.38;;;16.83;;
27796;SDS011;15177;50.844;4.412;2023-06-22T06:50:11;26.80;;;18.23;;
27796;SDS011;15177;50.844;4.412;2023-06-22T06:52:37;24.27;;;16.52;;
27796;SDS011;15177;50.844;4.412;2023-06-22T06:55:05;34.78;;;17.42;;
27796;SDS011;15177;50.844;4.412;2023-06-22T06:57:34;29.13;;;17.25;;
27796;SDS011;15177;50.844;4.412;2023-06-22T07:00:01;27.48;;;17.58;;
27796;SDS011;15177;50.844;4.412;2023-06-22T07:02:31;28.58;;;17.85;;
27796;SDS011;15177;50.844;4.412;2023-06-22T07:04:57;27.50;;;17.00;;
27796;SDS011;15177;50.844;4.412;2023-06-22T07:07:22;28.50;;;16.45;;
27796;SDS011;15177;50.844;4.412;2023-06-22T07:09:48;30.05;;;17.50;;
27796;SDS011;15177;50.844;4.412;2023-06-22T07:12:16;29.23;;;17.40;;
27796;SDS011;15177;50.844;4.412;2023-06-22T07:14:42;31.73;;;17.60;;
27796;SDS011;15177;50.844;4.412;2023-06-22T07:17:08;24.42;;;17.05;;
27796;SDS011;15177;50.844;4.412;2023-06-22T07:19:33;24.17;;;17.88;;
27796;SDS011;15177;50.844;4.412;2023-06-22T07:21:59;22.30;;;17.13;;
27796;SDS011;15177;50.844;4.412;2023-06-22T07:24:25;28.45;;;16.15;;
27796;SDS011;15177;50.844;4.412;2023-06-22T07:26:51;25.75;;;16.92;;
27796;SDS011;15177;50.844;4.412;2023-06-22T07:29:17;25.67;;;16.98;;
27796;SDS011;15177;50.844;4.412;2023-06-22T07:31:43;21.55;;;15.35;;
27796;SDS011;15177;50.844;4.412;2023-06-22T07:34:11;22.17;;;15.80;;
27796;SDS011;15177;50.844;4.412;2023-06-22T07:36:39;25.52;;;16.95;;
27796;SDS011;15177;50.844;4.412;2023-06-22T07:39:06;21.98;;;16.73;;
27796;SDS011;15177;50.844;4.412;2023-06-22T07:41:36;24.58;;;16.98;;
27796;SDS011;15177;50.844;4.412;2023-06-22T07:44:03;21.95;;;16.65;;
27796;SDS011;15177;50.844;4.412;2023-06-22T07:46:32;23.50;;;16.98;;
27796;SDS011;15177;50.844;4.412;2023-06-22T07:48:58;26.85;;;16.63;;
27796;SDS011;15177;50.844;4.412;2023-06-22T07:51:27;23.27;;;15.50;;
27796;SDS011;15177;50.844;4.412;2023-06-22T07:53:55;27.30;;;16.23;;
27796;SDS011;15177;50.844;4.412;2023-06-22T07:56:26;23.40;;;16.67;;
27796;SDS011;15177;50.844;4.412;2023-06-22T07:58:55;21.90;;;16.50;;
27796;SDS011;15177;50.844;4.412;2023-06-22T08:01:23;24.25;;;15.98;;
27796;SDS011;15177;50.844;4.412;2023-06-22T08:03:52;25.15;;;16.80;;
27796;SDS011;15177;50.844;4.412;2023-06-22T08:06:17;28.17;;;16.50;;
27796;SDS011;15177;50.844;4.412;2023-06-22T08:08:43;24.95;;;16.85;;
27796;SDS011;15177;50.844;4.412;2023-06-22T08:11:12;26.80;;;17.40;;
27796;SDS011;15177;50.844;4.412;2023-06-22T08:13:38;27.20;;;16.05;;
27796;SDS011;15177;50.844;4.412;2023-06-22T08:16:04;27.20;;;16.58;;
27796;SDS011;15177;50.844;4.412;2023-06-22T08:18:33;22.20;;;15.40;;
27796;SDS011;15177;50.844;4.412;2023-06-22T08:20:58;22.80;;;15.75;;
27796;SDS011;15177;50.844;4.412;2023-06-22T08:23:24;24.17;;;17.88;;
27796;SDS011;15177;50.844;4.412;2023-06-22T08:25:50;24.70;;;18.02;;
27796;SDS011;15177;50.844;4.412;2023-06-22T08:28:16;29.90;;;17.92;;
27796;SDS011;15177;50.844;4.412;2023-06-22T08:30:42;26.00;;;17.33;;
27796;SDS011;15177;50.844;4.412;2023-06-22T08:33:07;22.90;;;17.73;;
27796;SDS011;15177;50.844;4.412;2023-06-22T08:35:33;24.50;;;17.52;;
27796;SDS011;15177;50.844;4.412;2023-06-22T08:37:59;24.67;;;17.08;;
27796;SDS011;15177;50.844;4.412;2023-06-22T08:40:26;26.27;;;17.52;;
27796;SDS011;15177;50.844;4.412;2023-06-22T08:42:51;29.23;;;16.75;;
27796;SDS011;15177;50.844;4.412;2023-06-22T08:45:17;21.80;;;17.30;;
27796;SDS011;15177;50.844;4.412;2023-06-22T08:47:44;24.30;;;16.90;;
27796;SDS011;15177;50.844;4.412;2023-06-22T08:50:12;28.33;;;18.20;;
27796;SDS011;15177;50.844;4.412;2023-06-22T08:52:40;25.17;;;17.88;;
27796;SDS011;15177;50.844;4.412;2023-06-22T08:55:10;25.60;;;17.35;;
27796;SDS011;15177;50.844;4.412;2023-06-22T08:57:36;25.13;;;17.13;;
27796;SDS011;15177;50.844;4.412;2023-06-22T09:00:05;18.95;;;15.55;;
27796;SDS011;15177;50.844;4.412;2023-06-22T09:02:43;21.58;;;16.35;;
27796;SDS011;15177;50.844;4.412;2023-06-22T09:05:09;21.58;;;16.65;;
27796;SDS011;15177;50.844;4.412;2023-06-22T09:07:34;21.23;;;16.58;;
27796;SDS011;15177;50.844;4.412;2023-06-22T09:10:02;24.38;;;16.25;;
27796;SDS011;15177;50.844;4.412;2023-06-22T09:12:29;22.40;;;15.75;;
27796;SDS011;15177;50.844;4.412;2023-06-22T09:14:55;28.75;;;15.65;;
27796;SDS011;15177;50.844;4.412;2023-06-22T09:17:22;22.67;;;15.95;;
27796;SDS011;15177;50.844;4.412;2023-06-22T09:19:47;26.10;;;16.05;;
27796;SDS011;15177;50.844;4.412;2023-06-22T09:22:14;19.55;;;14.75;;
27796;SDS011;15177;50.844;4.412;2023-06-22T09:24:42;23.70;;;15.60;;
27796;SDS011;15177;50.844;4.412;2023-06-22T09:27:08;21.98;;;14.82;;
27796;SDS011;15177;50.844;4.412;2023-06-22T09:29:35;25.80;;;15.07;;
27796;SDS011;15177;50.844;4.412;2023-06-22T09:32:02;24.98;;;14.52;;
27796;SDS011;15177;50.844;4.412;2023-06-22T09:34:29;17.63;;;14.50;;
27796;SDS011;15177;50.844;4.412;2023-06-22T09:36:56;24.02;;;14.57;;
27796;SDS011;15177;50.844;4.412;2023-06-22T09:39:22;26.38;;;15.85;;
27796;SDS011;15177;50.844;4.412;2023-06-22T09:41:50;23.67;;;17.33;;
27796;SDS011;15177;50.844;4.412;2023-06-22T09:44:17;28.05;;;18.58;;
27796;SDS011;15177;50.844;4.412;2023-06-22T09:46:46;29.95;;;19.40;;
27796;SDS011;15177;50.844;4.412;2023-06-22T09:49:12;26.92;;;18.33;;
27796;SDS011;15177;50.844;4.412;2023-06-22T09:51:38;29.20;;;20.42;;
27796;SDS011;15177;50.844;4.412;2023-06-22T09:54:04;29.17;;;20.17;;
27796;SDS011;15177;50.844;4.412;2023-06-22T09:56:30;29.67;;;20.08;;
27796;SDS011;15177;50.844;4.412;2023-06-22T09:58:56;31.60;;;22.15;;
27796;SDS011;15177;50.844;4.412;2023-06-22T10:01:22;41.85;;;23.83;;
27796;SDS011;15177;50.844;4.412;2023-06-22T10:03:49;38.70;;;24.13;;
27796;SDS011;15177;50.844;4.412;2023-06-22T10:06:19;39.38;;;25.98;;
27796;SDS011;15177;50.844;4.412;2023-06-22T10:08:49;37.53;;;25.80;;
27796;SDS011;15177;50.844;4.412;2023-06-22T10:11:16;34.75;;;23.00;;
27796;SDS011;15177;50.844;4.412;2023-06-22T10:13:41;34.15;;;23.65;;
27796;SDS011;15177;50.844;4.412;2023-06-22T10:16:07;38.45;;;25.55;;
27796;SDS011;15177;50.844;4.412;2023-06-22T10:18:38;41.67;;;28.45;;
27796;SDS011;15177;50.844;4.412;2023-06-22T10:21:05;47.22;;;30.60;;
27796;SDS011;15177;50.844;4.412;2023-06-22T10:23:34;40.47;;;28.35;;
27796;SDS011;15177;50.844;4.412;2023-06-22T10:26:01;37.63;;;28.50;;
27796;SDS011;15177;50.844;4.412;2023-06-22T10:28:32;43.13;;;30.27;;
27796;SDS011;15177;50.844;4.412;2023-06-22T10:30:59;38.50;;;27.38;;
27796;SDS011;15177;50.844;4.412;2023-06-22T10:33:25;40.47;;;27.88;;
27796;SDS011;15177;50.844;4.412;2023-06-22T10:35:51;40.38;;;28.08;;
27796;SDS011;15177;50.844;4.412;2023-06-22T10:38:17;40.72;;;29.20;;
27796;SDS011;15177;50.844;4.412;2023-06-22T10:40:42;37.60;;;27.33;;
27796;SDS011;15177;50.844;4.412;2023-06-22T10:43:08;38.60;;;26.90;;
27796;SDS011;15177;50.844;4.412;2023-06-22T10:45:34;42.35;;;30.38;;
27796;SDS011;15177;50.844;4.412;2023-06-22T10:48:00;42.58;;;29.10;;
27796;SDS011;15177;50.844;4.412;2023-06-22T10:50:26;48.47;;;31.40;;
27796;SDS011;15177;50.844;4.412;2023-06-22T10:52:55;40.42;;;29.48;;
27796;SDS011;15177;50.844;4.412;2023-06-22T10:55:20;45.75;;;29.92;;
27796;SDS011;15177;50.844;4.412;2023-06-22T10:57:46;45.63;;;31.27;;
27796;SDS011;15177;50.844;4.412;2023-06-22T11:00:13;47.17;;;32.95;;
27796;SDS011;15177;50.844;4.412;2023-06-22T11:02:40;50.67;;;33.97;;
27796;SDS011;15177;50.844;4.412;2023-06-22T11:05:06;53.55;;;34.03;;
27796;SDS011;15177;50.844;4.412;2023-06-22T11:07:32;47.63;;;33.78;;
27796;SDS011;15177;50.844;4.412;2023-06-22T11:09:58;48.15;;;34.05;;
27796;SDS011;15177;50.844;4.412;2023-06-22T11:12:26;52.95;;;37.15;;
27796;SDS011;15177;50.844;4.412;2023-06-22T11:14:52;49.50;;;36.63;;
27796;SDS011;15177;50.844;4.412;2023-06-22T11:17:18;46.88;;;34.67;;
27796;SDS011;15177;50.844;4.412;2023-06-22T11:19:44;46.15;;;34.35;;
27796;SDS011;15177;50.844;4.412;2023-06-22T11:22:11;50.05;;;35.40;;
27796;SDS011;15177;50.844;4.412;2023-06-22T11:24:38;48.53;;;33.95;;
27796;SDS011;15177;50.844;4.412;2023-06-22T11:27:05;49.33;;;34.63;;
27796;SDS011;15177;50.844;4.412;2023-06-22T11:29:32;46.80;;;33.60;;
27796;SDS011;15177;50.844;4.412;2023-06-22T11:31:58;50.53;;;34.55;;
27796;SDS011;15177;50.844;4.412;2023-06-22T11:34:23;48.08;;;33.25;;
27796;SDS011;15177;50.844;4.412;2023-06-22T11:36:49;51.22;;;32.78;;
27796;SDS011;15177;50.844;4.412;2023-06-22T11:39:17;45.55;;;32.53;;
27796;SDS011;15177;50.844;4.412;2023-06-22T11:41:43;42.95;;;31.58;;
27796;SDS011;15177;50.844;4.412;2023-06-22T11:44:09;41.25;;;31.27;;
27796;SDS011;15177;50.844;4.412;2023-06-22T11:46:37;43.22;;;31.23;;
27796;SDS011;15177;50.844;4.412;2023-06-22T11:49:02;41.38;;;30.45;;
27796;SDS011;15177;50.844;4.412;2023-06-22T11:51:28;41.10;;;30.02;;
27796;SDS011;15177;50.844;4.412;2023-06-22T11:53:56;40.15;;;29.75;;
27796;SDS011;15177;50.844;4.412;2023-06-22T11:56:22;38.22;;;28.35;;
27796;SDS011;15177;50.844;4.412;2023-06-22T11:58:48;40.95;;;27.38;;
27796;SDS011;15177;50.844;4.412;2023-06-22T12:01:14;38.85;;;29.15;;
27796;SDS011;15177;50.844;4.412;2023-06-22T12:03:40;38.33;;;28.75;;
27796;SDS011;15177;50.844;4.412;2023-06-22T12:06:08;42.83;;;28.30;;
27796;SDS011;15177;50.844;4.412;2023-06-22T12:08:34;43.28;;;28.80;;
27796;SDS011;15177;50.844;4.412;2023-06-22T12:10:59;35.22;;;26.98;;
27796;SDS011;15177;50.844;4.412;2023-06-22T12:13:25;37.10;;;28.88;;
27796;SDS011;15177;50.844;4.412;2023-06-22T12:15:51;37.80;;;28.00;;
27796;SDS011;15177;50.844;4.412;2023-06-22T12:18:17;40.67;;;28.48;;
27796;SDS011;15177;50.844;4.412;2023-06-22T12:20:45;37.88;;;27.33;;
27796;SDS011;15177;50.844;4.412;2023-06-22T12:23:12;40.90;;;28.70;;
27796;SDS011;15177;50.844;4.412;2023-06-22T12:25:38;40.45;;;29.55;;
27796;SDS011;15177;50.844;4.412;2023-06-22T12:28:04;40.45;;;28.77;;
27796;SDS011;15177;50.844;4.412;2023-06-22T12:30:30;48.00;;;31.27;;
27796;SDS011;15177;50.844;4.412;2023-06-22T12:32:58;44.53;;;30.75;;
27796;SDS011;15177;50.844;4.412;2023-06-22T12:35:26;41.25;;;30.98;;
27796;SDS011;15177;50.844;4.412;2023-06-22T12:37:52;45.80;;;33.22;;
27796;SDS011;15177;50.844;4.412;2023-06-22T12:40:18;47.65;;;32.28;;
27796;SDS011;15177;50.844;4.412;2023-06-22T12:42:44;49.70;;;33.92;;
27796;SDS011;15177;50.844;4.412;2023-06-22T12:45:10;46.55;;;32.75;;
27796;SDS011;15177;50.844;4.412;2023-06-22T12:47:36;54.28;;;33.78;;
27796;SDS011;15177;50.844;4.412;2023-06-22T12:50:01;50.55;;;34.92;;
27796;SDS011;15177;50.844;4.412;2023-06-22T12:52:29;44.45;;;33.92;;
27796;SDS011;15177;50.844;4.412;2023-06-22T12:54:56;46.15;;;34.08;;
27796;SDS011;15177;50.844;4.412;2023-06-22T12:57:22;47.15;;;34.40;;
27796;SDS011;15177;50.844;4.412;2023-06-22T12:59:48;56.50;;;37.83;;
27796;SDS011;15177;50.844;4.412;2023-06-22T13:02:14;55.53;;;37.60;;
27796;SDS011;15177;50.844;4.412;2023-06-22T13:04:40;55.72;;;39.10;;
27796;SDS011;15177;50.844;4.412;2023-06-22T13:07:06;56.83;;;39.65;;
27796;SDS011;15177;50.844;4.412;2023-06-22T13:09:32;56.78;;;38.92;;
27796;SDS011;15177;50.844;4.412;2023-06-22T13:11:59;55.42;;;39.85;;
27796;SDS011;15177;50.844;4.412;2023-06-22T13:14:27;53.65;;;38.88;;
27796;SDS011;15177;50.844;4.412;2023-06-22T13:16:52;55.22;;;40.22;;
27796;SDS011;15177;50.844;4.412;2023-06-22T13:19:18;55.90;;;39.47;;
27796;SDS011;15177;50.844;4.412;2023-06-22T13:21:44;57.47;;;40.80;;
27796;SDS011;15177;50.844;4.412;2023-06-22T13:24:10;59.35;;;41.92;;
27796;SDS011;15177;50.844;4.412;2023-06-22T13:26:36;59.38;;;42.50;;
27796;SDS011;15177;50.844;4.412;2023-06-22T13:29:02;59.25;;;43.10;;
27796;SDS011;15177;50.844;4.412;2023-06-22T13:31:28;69.70;;;44.72;;
27796;SDS011;15177;50.844;4.412;2023-06-22T13:33:54;64.45;;;42.42;;
27796;SDS011;15177;50.844;4.412;2023-06-22T13:36:19;57.70;;;41.72;;
27796;SDS011;15177;50.844;4.412;2023-06-22T13:38:46;53.72;;;38.65;;
27796;SDS011;15177;50.844;4.412;2023-06-22T13:41:12;58.05;;;38.30;;
27796;SDS011;15177;50.844;4.412;2023-06-22T13:43:38;54.05;;;37.28;;
27796;SDS011;15177;50.844;4.412;2023-06-22T13:46:03;56.47;;;37.67;;
27796;SDS011;15177;50.844;4.412;2023-06-22T13:48:29;54.40;;;38.15;;
27796;SDS011;15177;50.844;4.412;2023-06-22T13:50:55;55.60;;;38.40;;
27796;SDS011;15177;50.844;4.412;2023-06-22T13:53:21;51.90;;;37.58;;
27796;SDS011;15177;50.844;4.412;2023-06-22T13:55:46;52.33;;;38.53;;
27796;SDS011;15177;50.844;4.412;2023-06-22T13:58:12;55.78;;;39.15;;
27796;SDS011;15177;50.844;4.412;2023-06-22T14:00:38;60.58;;;39.47;;
27796;SDS011;15177;50.844;4.412;2023-06-22T14:03:04;56.67;;;40.88;;
27796;SDS011;15177;50.844;4.412;2023-06-22T14:05:29;55.15;;;39.72;;
27796;SDS011;15177;50.844;4.412;2023-06-22T14:07:55;56.53;;;40.28;;
27796;SDS011;15177;50.844;4.412;2023-06-22T14:10:21;55.20;;;39.78;;
27796;SDS011;15177;50.844;4.412;2023-06-22T14:12:46;57.70;;;40.92;;
27796;SDS011;15177;50.844;4.412;2023-06-22T14:15:12;60.47;;;40.72;;
27796;SDS011;15177;50.844;4.412;2023-06-22T14:17:38;58.83;;;41.75;;
27796;SDS011;15177;50.844;4.412;2023-06-22T14:20:03;56.35;;;40.38;;
27796;SDS011;15177;50.844;4.412;2023-06-22T14:22:31;59.33;;;39.78;;
27796;SDS011;15177;50.844;4.412;2023-06-22T14:24:57;53.72;;;40.38;;
27796;SDS011;15177;50.844;4.412;2023-06-22T14:27:23;60.08;;;41.50;;
27796;SDS011;15177;50.844;4.412;2023-06-22T14:29:50;59.25;;;41.00;;
27796;SDS011;15177;50.844;4.412;2023-06-22T14:32:17;56.03;;;39.10;;